Chugiak, AK

2:24 AM AKST on March 05, 2015 (GMT -0900)
Northwoods | Change Station
CLOSE
Current Station
Personal Weather Station
Location: Chugiak, AK
Elevation: 370 ft
Nearby Weather Stations
Active Advisory: Dense Fog Advisory Active Notice: Record Report

Elev 370 ft 61.42 °N, 149.45 °W | Updated 11 seconds ago

Overcast
Overcast
34.1 °F
Feels Like 34 °F
N
0.0
Wind Variable Wind from SSW
Gusts 0.0 mph

Today
High -- | Low -- °F
--% Chance of Precip.
Yesterday
High -- | Low -- °F
Precip. -- in
7:46 AM 6:33 PM
Full, 100% visible
Pressure 29.81 in
Visibility 0.5 miles
Clouds Overcast 300 ft
Windchill 34 °F
Dew Point 34 °F
Humidity 99%
Rainfall in
Snow Depth Not available.
UV 0.0 out of 12
Pollen Not available.
Air Quality Not available.
Flu Activity Not available.
METAR PABV 051116Z AUTO 00000KT 1/2SM OVC003 01/01 A2981 RMK AO1

More Conditions Fewer Conditions

Pressure 29.81 in
Visibility 0.5 miles
Clouds Overcast 300 ft
Windchill 34 °F
Dew Point 34 °F
Humidity 99%
Rainfall in
Snow Depth Not available.
UV 0.0 out of 12
Pollen Not available.
Air Quality Not available.
Flu Activity Not available.
METAR PABV 051116Z AUTO 00000KT 1/2SM OVC003 01/01 A2981 RMK AO1

More Conditions Fewer Conditions

10-Day Weather Forecast

Almanac

Astronomy

Mar. 05, 2015 Rise Set
Actual Time
Civil Twilight
Nautical Twilight
Astronomical Twilight
Moon
Length of Visible Light
Length of Day
Tomorrow will be .
, % of the Moon is Illuminated

Today's Extremes

State Highs State Lows

Community

WunderPhotos

Upload Photos

1,802,716 photos uploaded!

WunderBlogs® & News

Nearby

Air Quality

  Air Quality AQ Index Pollutant
Not available.

Snow Depth

Station Depth Elevation

Earthquake Activity

City Distance Mag. Time & Date
Minimum magnitude displayed is 2.5.

Coastal Water Temperatures

Place Temperature

Nearby Weather Stations

Dense Fog Advisory
Statement as of 12:54 AM AKST on March 05, 2015

... Dense fog advisory in effect until 10 am akst this morning...

The National Weather Service in Anchorage has issued a dense fog
advisory... which is in effect until 10 am akst this morning.

* Visibility... less than one quarter mile at times.

* Timing... fog will spread across the Anchorage bowl overnight and
dissipate by mid morning.

* Impacts... reduced visibility will make driving difficult.

Precautionary/preparedness actions...

A dense fog advisory means visibilities will frequently be
reduced to less than one quarter mile. If driving... slow down...
use your headlights... and leave plenty of distance ahead of you.